Time;durP1;ratioP1;P1;durP2;ratioP2;P2;SDS_P1;SDS_P2;PMS_P1;PMS_P2;Temp;Humidity;BMP_temperature;BMP_pressure;BME280_temperature;BME280_humidity;BME280_pressure;Samples;Min_cycle;Max_cycle;Signal;HPM_P1;HPM_P2
2021/03/15 00:00:59;;;;;;;5.72;5.15;;;4.80;1.00;;;;;;4899003;28;20238;-78
2021/03/15 00:03:26;;;;;;;7.28;6.45;;;4.80;1.00;;;;;;4915308;29;20333;-75
2021/03/15 00:05:52;;;;;;;7.15;5.10;;;4.80;1.00;;;;;;4914140;28;20376;-73
2021/03/15 00:08:18;;;;;;;8.75;6.63;;;4.80;1.00;;;;;;4887891;29;21076;-74
2021/03/15 00:10:46;;;;;;;8.70;6.63;;;4.80;1.00;;;;;;4906642;28;20617;-74
2021/03/15 00:13:14;;;;;;;7.40;5.85;;;4.80;1.00;;;;;;4892888;28;20278;-73
2021/03/15 00:15:41;;;;;;;6.25;5.05;;;4.70;1.00;;;;;;4905922;29;20237;-74
2021/03/15 00:18:07;;;;;;;9.40;6.63;;;4.70;1.00;;;;;;4886417;28;20233;-73
2021/03/15 00:20:34;;;;;;;8.15;6.03;;;4.70;1.00;;;;;;4899297;29;24015;-73
2021/03/15 00:23:00;;;;;;;6.97;5.40;;;4.60;1.00;;;;;;4891231;28;20269;-73
2021/03/15 00:25:26;;;;;;;8.98;6.38;;;4.60;1.00;;;;;;4903913;29;20230;-73
2021/03/15 00:27:54;;;;;;;8.57;5.47;;;4.50;1.00;;;;;;4887088;29;20257;-74
2021/03/15 00:30:21;;;;;;;6.88;5.40;;;4.50;1.00;;;;;;4901673;28;20229;-75
2021/03/15 00:32:48;;;;;;;9.30;5.55;;;4.50;1.00;;;;;;4890491;28;21441;-74
2021/03/15 00:35:16;;;;;;;8.13;5.90;;;4.50;1.00;;;;;;4912832;28;20264;-72
2021/03/15 00:37:43;;;;;;;9.05;6.00;;;4.50;1.00;;;;;;4875195;29;20261;-73
2021/03/15 00:40:11;;;;;;;7.53;5.88;;;4.50;1.00;;;;;;4903233;28;20320;-73
2021/03/15 00:42:39;;;;;;;7.82;6.05;;;4.60;1.00;;;;;;4887932;28;20713;-73
2021/03/15 00:45:07;;;;;;;8.43;6.05;;;4.60;1.00;;;;;;4900805;29;20309;-72
2021/03/15 00:47:34;;;;;;;7.15;5.28;;;4.60;1.00;;;;;;4904058;28;20330;-75
2021/03/15 00:50:00;;;;;;;6.05;5.18;;;4.60;1.00;;;;;;4890633;29;20242;-71
2021/03/15 00:52:26;;;;;;;7.03;5.50;;;4.50;1.00;;;;;;4904592;28;20309;-74
2021/03/15 00:54:52;;;;;;;7.82;5.47;;;4.50;1.00;;;;;;4896748;29;20922;-74
2021/03/15 00:57:18;;;;;;;6.90;5.15;;;4.50;1.00;;;;;;4904393;28;20232;-75
2021/03/15 00:59:45;;;;;;;9.05;5.80;;;4.50;1.00;;;;;;4894915;29;20933;-74
2021/03/15 01:02:13;;;;;;;8.82;5.00;;;4.40;1.00;;;;;;4908121;29;20628;-74
2021/03/15 01:04:39;;;;;;;6.35;4.75;;;4.40;1.00;;;;;;4891949;28;20418;-74
2021/03/15 01:07:06;;;;;;;6.40;5.80;;;4.40;1.00;;;;;;4911008;29;21035;-73
2021/03/15 01:09:32;;;;;;;5.90;4.47;;;4.60;1.00;;;;;;4899799;28;20401;-74
2021/03/15 01:11:58;;;;;;;5.53;4.70;;;4.60;1.00;;;;;;4911300;29;20235;-73
2021/03/15 01:14:24;;;;;;;6.22;4.93;;;4.70;1.00;;;;;;4899061;28;20222;-74
2021/03/15 01:16:50;;;;;;;5.95;4.60;;;4.70;1.00;;;;;;4916066;29;20324;-74
2021/03/15 01:19:17;;;;;;;5.78;4.93;;;4.70;1.00;;;;;;4902851;28;20237;-75
2021/03/15 01:21:44;;;;;;;6.50;4.82;;;4.80;1.00;;;;;;4910300;28;20536;-75
2021/03/15 01:24:10;;;;;;;8.10;5.28;;;4.80;1.00;;;;;;4886677;29;20229;-75
2021/03/15 01:26:36;;;;;;;5.82;4.57;;;4.80;1.00;;;;;;4911494;28;20798;-75
2021/03/15 01:29:03;;;;;;;8.20;5.05;;;4.80;1.00;;;;;;4897777;29;20310;-73
2021/03/15 01:31:29;;;;;;;7.40;5.88;;;4.80;1.00;;;;;;4899694;28;20222;-73
2021/03/15 01:33:55;;;;;;;8.70;5.65;;;4.90;1.00;;;;;;4913659;28;21209;-74
2021/03/15 01:36:22;;;;;;;7.25;5.32;;;4.80;1.00;;;;;;4901773;29;20764;-73
2021/03/15 01:38:48;;;;;;;6.60;4.47;;;4.80;1.00;;;;;;4906699;28;20262;-73
2021/03/15 01:41:15;;;;;;;8.57;5.30;;;4.80;1.00;;;;;;4901805;29;20274;-73
2021/03/15 01:43:41;;;;;;;6.85;5.35;;;4.90;1.00;;;;;;4924110;28;20291;-74
2021/03/15 01:46:07;;;;;;;11.68;6.10;;;4.80;1.00;;;;;;4911737;28;20225;-74
2021/03/15 01:48:33;;;;;;;7.20;5.38;;;4.90;1.00;;;;;;4913958;29;20281;-72
2021/03/15 01:50:59;;;;;;;8.07;4.95;;;4.90;1.00;;;;;;4900324;28;20222;-73
2021/03/15 01:53:27;;;;;;;7.53;5.40;;;4.90;1.00;;;;;;4918869;29;20236;-74
2021/03/15 01:55:54;;;;;;;9.90;5.82;;;4.90;1.00;;;;;;4901899;28;20257;-73
2021/03/15 01:58:21;;;;;;;7.65;5.03;;;4.90;1.00;;;;;;4916352;29;20221;-75
2021/03/15 02:00:48;;;;;;;9.88;5.28;;;4.80;1.00;;;;;;4902616;28;21669;-72
2021/03/15 02:03:14;;;;;;;8.25;5.68;;;4.80;1.00;;;;;;4911246;28;20232;-74
2021/03/15 02:05:42;;;;;;;6.03;5.18;;;4.90;1.00;;;;;;4903957;28;20316;-72
2021/03/15 02:08:09;;;;;;;7.80;5.25;;;4.90;1.00;;;;;;4909567;28;20261;-72
2021/03/15 02:10:37;;;;;;;7.03;5.70;;;4.90;1.00;;;;;;4919458;29;20964;-73
2021/03/15 02:13:19;;;;;;;7.40;5.45;;;4.90;1.00;;;;;;4896582;28;20221;-73
2021/03/15 02:16:01;;;;;;;6.30;5.63;;;4.90;1.00;;;;;;4914972;29;20249;-73
2021/03/15 02:18:39;;;;;;;6.43;4.65;;;4.80;1.00;;;;;;4886161;28;20265;-74
2021/03/15 02:21:41;;;;;;;10.85;5.82;;;4.80;1.00;;;;;;4915389;28;20325;-74
2021/03/15 02:24:15;;;;;;;6.80;4.43;;;4.90;1.00;;;;;;4924158;28;20305;-72
2021/03/15 02:27:19;;;;;;;8.25;5.90;;;4.80;1.00;;;;;;4898178;29;20358;-74
2021/03/15 02:30:03;;;;;;;6.53;5.50;;;4.80;1.00;;;;;;4910454;28;20288;-72
2021/03/15 02:32:59;;;;;;;7.75;5.13;;;4.80;1.00;;;;;;4901237;29;20321;-73
2021/03/15 02:35:29;;;;;;;6.45;4.53;;;4.80;1.00;;;;;;4913620;29;20366;-74
2021/03/15 02:38:02;;;;;;;8.23;5.07;;;4.80;1.00;;;;;;4895231;28;20325;-72
2021/03/15 02:40:32;;;;;;;9.07;6.05;;;4.80;1.00;;;;;;4907400;29;20229;-73
2021/03/15 02:43:04;;;;;;;6.82;4.85;;;4.80;1.00;;;;;;4894444;28;20225;-74
2021/03/15 02:45:32;;;;;;;8.55;5.03;;;4.80;1.00;;;;;;4906939;29;20235;-72
2021/03/15 02:48:00;;;;;;;7.70;4.53;;;4.70;1.00;;;;;;4877943;29;20329;-73
2021/03/15 02:50:28;;;;;;;6.43;4.53;;;4.70;1.00;;;;;;4907611;29;20841;-73
2021/03/15 02:52:56;;;;;;;6.65;4.93;;;4.70;1.00;;;;;;4892752;28;20634;-74
2021/03/15 02:55:26;;;;;;;9.13;5.22;;;4.70;1.00;;;;;;4906470;29;24200;-72
2021/03/15 02:57:55;;;;;;;6.45;5.47;;;4.70;1.00;;;;;;4894560;28;20262;-74
2021/03/15 03:00:23;;;;;;;7.82;5.20;;;4.70;1.00;;;;;;4907695;28;20305;-73
2021/03/15 03:02:51;;;;;;;7.80;4.80;;;4.70;1.00;;;;;;4910410;29;20309;-74
2021/03/15 03:05:19;;;;;;;7.93;5.25;;;4.70;1.00;;;;;;4887433;29;20729;-73
2021/03/15 03:07:48;;;;;;;8.48;5.82;;;4.60;1.00;;;;;;4909835;29;20317;-73
2021/03/15 03:10:16;;;;;;;6.22;5.18;;;4.70;1.00;;;;;;4890828;28;20325;-75
2021/03/15 03:12:44;;;;;;;11.07;5.70;;;4.70;1.00;;;;;;4909097;29;20317;-74
2021/03/15 03:15:13;;;;;;;9.02;5.70;;;4.70;1.00;;;;;;4898851;29;20320;-75
2021/03/15 03:17:41;;;;;;;14.02;7.30;;;4.70;1.00;;;;;;4907873;28;20332;-75
2021/03/15 03:20:10;;;;;;;8.38;6.20;;;4.70;1.00;;;;;;4894047;29;20244;-72
2021/03/15 03:22:39;;;;;;;7.60;6.57;;;4.60;1.00;;;;;;4927089;28;20337;-75
2021/03/15 03:25:10;;;;;;;10.40;6.75;;;4.60;1.00;;;;;;4900948;29;20308;-74
2021/03/15 03:27:38;;;;;;;9.40;6.07;;;4.70;1.00;;;;;;4905072;28;20659;-75
2021/03/15 03:30:06;;;;;;;8.25;7.30;;;4.60;1.00;;;;;;4892919;29;21165;-74
2021/03/15 03:32:34;;;;;;;10.05;7.53;;;4.70;1.00;;;;;;4912376;29;20221;-74
2021/03/15 03:35:01;;;;;;;11.07;7.50;;;4.70;1.00;;;;;;4883578;29;20317;-72
2021/03/15 03:37:27;;;;;;;11.25;8.18;;;4.70;1.00;;;;;;4908074;29;20306;-74
2021/03/15 03:39:53;;;;;;;12.50;8.02;;;4.70;1.00;;;;;;4891617;28;20238;-73
2021/03/15 03:42:20;;;;;;;10.25;8.13;;;4.70;1.00;;;;;;4909610;29;20228;-74
2021/03/15 03:44:47;;;;;;;14.88;8.88;;;4.60;1.00;;;;;;4896212;28;27549;-73
2021/03/15 03:47:15;;;;;;;15.20;8.82;;;4.60;1.00;;;;;;4908672;29;20241;-72
2021/03/15 03:49:43;;;;;;;9.52;8.00;;;4.50;1.00;;;;;;4903954;29;20328;-73
2021/03/15 03:52:09;;;;;;;11.55;8.40;;;4.50;1.00;;;;;;4903808;28;20793;-73
2021/03/15 03:54:43;;;;;;;14.98;8.90;;;4.50;1.00;;;;;;4906436;29;20225;-74
2021/03/15 03:57:11;;;;;;;12.27;8.18;;;4.50;1.00;;;;;;4893498;28;20225;-73
2021/03/15 03:59:42;;;;;;;12.65;7.95;;;4.40;1.00;;;;;;4896806;29;20746;-74
2021/03/15 04:02:11;;;;;;;13.60;8.20;;;4.40;1.00;;;;;;4890304;28;20225;-73
2021/03/15 04:04:41;;;;;;;10.43;8.15;;;4.40;1.00;;;;;;4908117;29;20236;-73
2021/03/15 04:07:09;;;;;;;11.20;8.07;;;4.40;1.00;;;;;;4879224;29;20389;-74
2021/03/15 04:09:37;;;;;;;12.25;7.95;;;4.30;1.00;;;;;;4910689;28;20237;-74
2021/03/15 04:12:07;;;;;;;13.38;9.38;;;4.30;1.00;;;;;;4909134;28;20282;-73
2021/03/15 04:14:38;;;;;;;9.65;7.45;;;4.30;1.00;;;;;;4910549;28;20243;-74
2021/03/15 04:17:09;;;;;;;12.00;9.07;;;4.20;1.00;;;;;;4899542;28;20309;-74
2021/03/15 04:19:38;;;;;;;10.90;7.40;;;4.20;1.00;;;;;;4907723;28;20265;-73
2021/03/15 04:22:08;;;;;;;14.85;7.15;;;4.10;1.00;;;;;;4897828;29;20811;-73
2021/03/15 04:24:36;;;;;;;13.32;8.70;;;4.00;1.00;;;;;;4914038;29;20629;-74
2021/03/15 04:27:05;;;;;;;12.65;7.70;;;4.00;1.00;;;;;;4900422;28;20230;-72
2021/03/15 04:29:32;;;;;;;11.90;7.22;;;3.90;1.00;;;;;;4917624;29;21315;-73
2021/03/15 04:32:00;;;;;;;11.13;8.82;;;3.90;1.00;;;;;;4906594;28;20260;-70
2021/03/15 04:34:29;;;;;;;16.73;8.50;;;3.80;1.00;;;;;;4919089;29;20562;-73
2021/03/15 04:36:56;;;;;;;10.25;8.02;;;3.70;1.00;;;;;;4881903;29;21159;-75
2021/03/15 04:39:23;;;;;;;12.38;8.70;;;3.70;1.00;;;;;;4912579;29;20282;-73
2021/03/15 04:41:50;;;;;;;10.00;7.38;;;3.70;1.00;;;;;;4898338;28;20250;-75
2021/03/15 04:44:17;;;;;;;13.45;8.40;;;3.80;1.00;;;;;;4897726;29;21125;-74
2021/03/15 04:46:43;;;;;;;15.27;8.15;;;3.80;1.00;;;;;;4915838;29;20356;-73
2021/03/15 04:49:11;;;;;;;10.23;8.20;;;3.80;1.00;;;;;;4894902;28;20218;-72
2021/03/15 04:51:39;;;;;;;12.55;7.88;;;3.90;1.00;;;;;;4902165;29;20230;-75
2021/03/15 04:54:06;;;;;;;16.23;9.43;;;3.90;1.00;;;;;;4876200;28;20341;-74
2021/03/15 04:56:35;;;;;;;16.25;7.70;;;3.90;1.00;;;;;;4909560;29;20226;-70
2021/03/15 04:59:03;;;;;;;12.20;7.82;;;4.00;1.00;;;;;;4901393;29;20558;-73
2021/03/15 05:01:32;;;;;;;17.15;8.82;;;4.10;1.00;;;;;;4920038;28;20233;-73
2021/03/15 05:04:00;;;;;;;9.38;8.05;;;4.10;1.00;;;;;;4904264;28;20257;-72
2021/03/15 05:06:28;;;;;;;10.57;8.18;;;4.10;1.00;;;;;;4912773;28;20334;-72
2021/03/15 05:08:56;;;;;;;20.02;14.45;;;4.10;1.00;;;;;;4910096;29;20659;-73
2021/03/15 05:11:30;;;;;;;12.75;8.40;;;4.10;1.00;;;;;;4922177;28;20233;-73
2021/03/15 05:13:58;;;;;;;11.40;8.35;;;4.10;1.00;;;;;;4915233;29;20595;-73
2021/03/15 05:16:29;;;;;;;12.00;8.95;;;4.10;1.00;;;;;;4926830;29;20763;-73
2021/03/15 05:18:56;;;;;;;10.60;8.48;;;4.20;1.00;;;;;;4908585;28;20235;-72
2021/03/15 05:21:23;;;;;;;13.65;7.78;;;4.20;1.00;;;;;;4923181;29;20265;-74
2021/03/15 05:23:50;;;;;;;10.23;8.52;;;4.20;1.00;;;;;;4912344;28;20221;-73
2021/03/15 05:26:19;;;;;;;16.45;8.70;;;4.30;1.00;;;;;;4908099;29;20254;-74
2021/03/15 05:28:47;;;;;;;11.55;7.35;;;4.20;1.00;;;;;;4914258;28;20260;-75
2021/03/15 05:31:16;;;;;;;10.90;8.45;;;4.20;1.00;;;;;;4921710;29;20413;-73
2021/03/15 05:33:44;;;;;;;14.00;9.18;;;4.20;1.00;;;;;;4900108;28;20320;-72
2021/03/15 05:36:11;;;;;;;12.25;7.80;;;4.20;1.00;;;;;;4919067;28;20768;-73
2021/03/15 05:38:38;;;;;;;10.32;7.93;;;4.20;1.00;;;;;;4919699;29;20221;-74
2021/03/15 05:41:09;;;;;;;15.90;8.63;;;4.20;1.00;;;;;;4904631;28;21199;-73
2021/03/15 05:43:56;;;;;;;14.05;8.27;;;4.20;1.00;;;;;;4924915;29;20305;-72
2021/03/15 05:46:58;;;;;;;10.10;7.75;;;4.20;1.00;;;;;;4910167;28;20229;-72
2021/03/15 05:49:55;;;;;;;13.20;9.75;;;4.20;1.00;;;;;;4915615;28;20784;-72
2021/03/15 05:52:42;;;;;;;14.77;9.48;;;4.10;1.00;;;;;;4929403;28;20230;-74
2021/03/15 05:55:27;;;;;;;14.35;9.73;;;4.10;1.00;;;;;;4919977;29;20234;-74
2021/03/15 05:58:16;;;;;;;9.10;7.38;;;4.10;1.00;;;;;;4915758;29;20350;-74
2021/03/15 06:00:56;;;;;;;12.43;8.95;;;4.20;1.00;;;;;;4913007;29;20241;-72
2021/03/15 06:03:45;;;;;;;13.75;8.07;;;4.30;1.00;;;;;;4920194;28;20312;-74
2021/03/15 06:06:16;;;;;;;11.60;8.40;;;4.30;1.00;;;;;;4909314;29;20230;-75
2021/03/15 06:08:45;;;;;;;13.63;8.15;;;4.30;1.00;;;;;;4912124;29;20242;-75
2021/03/15 06:11:16;;;;;;;12.75;8.77;;;4.30;1.00;;;;;;4900859;28;20229;-74
2021/03/15 06:13:43;;;;;;;15.55;8.88;;;4.40;1.00;;;;;;4912415;29;20225;-74
2021/03/15 06:16:11;;;;;;;14.20;8.48;;;4.40;1.00;;;;;;4902706;28;20249;-74
2021/03/15 06:18:38;;;;;;;12.90;7.88;;;4.50;1.00;;;;;;4918602;29;20670;-73
2021/03/15 06:21:06;;;;;;;10.70;8.73;;;4.60;1.00;;;;;;4900836;28;20356;-74
2021/03/15 06:23:32;;;;;;;12.20;8.15;;;4.70;1.00;;;;;;4915982;29;20680;-74
2021/03/15 06:25:58;;;;;;;10.90;7.47;;;4.70;1.00;;;;;;4899904;29;20685;-72
2021/03/15 06:28:25;;;;;;;11.60;7.47;;;4.70;1.00;;;;;;4914886;28;20320;-74
2021/03/15 06:30:53;;;;;;;14.00;7.95;;;4.70;1.00;;;;;;4918772;29;20293;-74
2021/03/15 06:33:20;;;;;;;10.23;7.95;;;4.70;1.00;;;;;;4895455;29;20236;-74
2021/03/15 06:35:49;;;;;;;10.05;7.10;;;4.70;1.00;;;;;;4914693;29;20676;-73
2021/03/15 06:38:16;;;;;;;11.88;8.30;;;4.80;1.00;;;;;;4902902;28;20234;-74
2021/03/15 06:40:44;;;;;;;14.15;8.60;;;4.80;1.00;;;;;;4920408;29;20249;-73
2021/03/15 06:43:14;;;;;;;13.55;7.65;;;4.90;1.00;;;;;;4902599;28;20250;-74
2021/03/15 06:45:42;;;;;;;12.00;7.22;;;4.90;1.00;;;;;;4914685;28;21053;-74
2021/03/15 06:48:09;;;;;;;7.90;7.05;;;4.90;1.00;;;;;;4895897;28;20241;-74
2021/03/15 06:50:36;;;;;;;11.68;8.30;;;4.90;1.00;;;;;;4910663;28;20230;-72
2021/03/15 06:53:04;;;;;;;9.95;7.40;;;4.90;1.00;;;;;;4900797;28;20308;-72
2021/03/15 06:55:44;;;;;;;11.02;6.53;;;5.00;1.00;;;;;;4911081;28;21594;-73
2021/03/15 06:58:25;;;;;;;10.40;7.57;;;5.00;1.00;;;;;;4898103;29;20225;-73
2021/03/15 07:01:11;;;;;;;11.65;8.40;;;5.10;1.00;;;;;;4917745;28;20226;-74
2021/03/15 07:03:39;;;;;;;10.85;7.07;;;5.10;1.00;;;;;;4910940;29;20229;-71
2021/03/15 07:06:06;;;;;;;9.60;7.28;;;5.10;1.00;;;;;;4915575;29;20290;-73
2021/03/15 07:08:32;;;;;;;7.82;7.03;;;5.20;1.00;;;;;;4879505;29;20795;-73
2021/03/15 07:10:59;;;;;;;10.98;7.80;;;5.20;1.00;;;;;;4916535;29;21138;-74
2021/03/15 07:13:26;;;;;;;10.43;7.05;;;5.30;1.00;;;;;;4908714;28;20701;-74
2021/03/15 07:15:55;;;;;;;15.82;9.13;;;5.30;1.00;;;;;;4915261;29;20229;-74
2021/03/15 07:18:23;;;;;;;9.80;6.93;;;5.30;1.00;;;;;;4901989;28;20230;-75
2021/03/15 07:20:51;;;;;;;10.82;6.72;;;5.30;1.00;;;;;;4911987;29;20628;-73
2021/03/15 07:23:37;;;;;;;10.55;7.22;;;5.30;1.00;;;;;;4904036;29;20233;-74
2021/03/15 07:26:10;;;;;;;11.82;6.93;;;5.30;1.00;;;;;;4912884;29;20245;-74
2021/03/15 07:28:36;;;;;;;11.52;7.15;;;5.40;1.00;;;;;;4901665;28;20233;-72
2021/03/15 07:31:25;;;;;;;8.20;6.82;;;5.40;1.00;;;;;;4912985;28;20697;-72
2021/03/15 07:34:17;;;;;;;8.40;6.38;;;5.40;1.00;;;;;;4903978;29;20230;-71
2021/03/15 07:36:46;;;;;;;12.15;7.40;;;5.40;1.00;;;;;;4914355;28;20306;-75
2021/03/15 07:39:13;;;;;;;12.82;6.97;;;5.50;1.00;;;;;;4902618;29;20234;-75
2021/03/15 07:41:41;;;;;;;15.93;8.25;;;5.50;1.00;;;;;;4913608;28;20270;-75
2021/03/15 07:44:15;;;;;;;10.20;7.97;;;5.50;1.00;;;;;;4903194;28;20233;-74
2021/03/15 07:46:42;;;;;;;13.15;7.80;;;5.50;1.00;;;;;;4913448;28;20218;-74
2021/03/15 07:49:21;;;;;;;8.48;7.03;;;5.60;1.00;;;;;;4897977;29;20906;-75
2021/03/15 07:51:51;;;;;;;9.48;7.07;;;5.50;1.00;;;;;;4919100;28;20228;-73
2021/03/15 07:54:24;;;;;;;12.32;7.90;;;5.60;1.00;;;;;;4919536;28;20237;-73
2021/03/15 07:57:11;;;;;;;9.93;6.75;;;5.60;1.00;;;;;;4918499;29;20261;-76
2021/03/15 07:59:38;;;;;;;8.90;6.93;;;5.50;1.00;;;;;;4902474;28;21059;-74
2021/03/15 08:02:04;;;;;;;10.30;8.65;;;5.60;1.00;;;;;;4896099;29;20237;-74
2021/03/15 08:04:31;;;;;;;11.45;7.65;;;5.60;1.00;;;;;;4909184;28;20237;-73
2021/03/15 08:06:58;;;;;;;11.57;7.03;;;5.70;1.00;;;;;;4907971;29;20288;-74
2021/03/15 08:09:25;;;;;;;10.93;6.75;;;5.80;1.00;;;;;;4916453;29;20696;-72
2021/03/15 08:11:54;;;;;;;11.00;7.13;;;5.90;1.00;;;;;;4895622;28;20221;-72
2021/03/15 08:14:22;;;;;;;11.18;8.20;;;5.80;1.00;;;;;;4912207;29;20236;-72
2021/03/15 08:16:48;;;;;;;7.90;6.65;;;5.80;1.00;;;;;;4899748;28;20233;-75
2021/03/15 08:19:19;;;;;;;9.02;6.07;;;5.90;1.00;;;;;;4901261;29;20228;-72
2021/03/15 08:21:46;;;;;;;9.68;7.13;;;5.90;1.00;;;;;;4916520;28;20289;-71
2021/03/15 08:24:15;;;;;;;10.32;6.93;;;6.10;1.00;;;;;;4911949;28;20229;-72
2021/03/15 08:26:45;;;;;;;10.70;6.60;;;6.30;1.00;;;;;;4906556;28;21133;-73
2021/03/15 08:29:14;;;;;;;7.78;6.30;;;6.70;1.00;;;;;;4913856;28;20293;-72
2021/03/15 08:31:43;;;;;;;9.60;6.18;;;6.80;1.00;;;;;;4901474;28;20289;-74
2021/03/15 08:34:11;;;;;;;10.15;7.40;;;7.00;1.00;;;;;;4907233;28;20240;-75
2021/03/15 08:36:38;;;;;;;12.60;7.35;;;7.30;1.00;;;;;;4898801;29;20252;-73
2021/03/15 08:39:37;;;;;;;7.05;6.30;;;7.50;1.00;;;;;;4914251;28;20225;-73
2021/03/15 08:42:24;;;;;;;10.05;6.70;;;7.70;1.00;;;;;;4902287;28;20265;-73
2021/03/15 08:44:50;;;;;;;8.00;6.35;;;7.90;1.00;;;;;;4916107;28;20308;-74
2021/03/15 08:47:46;;;;;;;7.82;6.20;;;7.80;1.00;;;;;;4901458;28;20229;-75
2021/03/15 08:50:44;;;;;;;7.90;6.38;;;7.60;1.00;;;;;;4902207;28;20233;-74
2021/03/15 08:53:11;;;;;;;14.80;7.40;;;7.70;1.00;;;;;;4896451;28;20317;-73
2021/03/15 08:55:47;;;;;;;12.48;7.95;;;7.80;1.00;;;;;;4913433;29;20222;-73
2021/03/15 08:58:40;;;;;;;9.82;6.80;;;7.80;1.00;;;;;;4898714;28;20366;-73
2021/03/15 09:01:08;;;;;;;13.55;8.77;;;8.00;1.00;;;;;;4911607;29;20242;-73
2021/03/15 09:03:51;;;;;;;9.93;7.50;;;8.20;1.00;;;;;;4899066;28;20324;-72
2021/03/15 09:06:47;;;;;;;7.68;6.88;;;8.10;1.00;;;;;;4912176;29;20233;-73
2021/03/15 09:09:25;;;;;;;9.18;7.18;;;8.20;1.00;;;;;;4893660;28;20304;-71
2021/03/15 09:11:52;;;;;;;8.48;6.90;;;8.30;1.00;;;;;;4912047;29;20271;-72
2021/03/15 09:14:34;;;;;;;11.30;7.43;;;8.20;1.00;;;;;;4891523;28;20230;-71
2021/03/15 09:17:22;;;;;;;12.02;7.45;;;8.20;1.00;;;;;;4904987;28;20730;-73
2021/03/15 09:19:50;;;;;;;7.55;6.80;;;8.10;1.00;;;;;;4912066;28;20224;-72
2021/03/15 09:22:23;;;;;;;9.23;8.32;;;8.00;1.00;;;;;;4909761;28;20237;-72
2021/03/15 09:24:51;;;;;;;14.23;7.75;;;7.70;1.00;;;;;;4895909;28;20721;-74
2021/03/15 09:27:42;;;;;;;10.55;6.80;;;7.70;1.00;;;;;;4908144;28;20221;-72
2021/03/15 09:30:13;;;;;;;12.23;7.50;;;7.70;1.00;;;;;;4906559;28;20229;-74
2021/03/15 09:32:41;;;;;;;12.10;6.82;;;7.70;1.00;;;;;;4919891;28;20255;-73
2021/03/15 09:35:16;;;;;;;7.85;6.03;;;7.60;1.00;;;;;;4901111;28;20316;-75
2021/03/15 09:37:48;;;;;;;13.20;6.80;;;7.70;1.00;;;;;;4896499;29;20229;-75
2021/03/15 09:40:16;;;;;;;7.07;6.13;;;7.70;1.00;;;;;;4893947;28;20329;-75
2021/03/15 09:42:43;;;;;;;7.72;6.35;;;8.00;1.00;;;;;;4909944;28;20234;-75
2021/03/15 09:45:21;;;;;;;7.68;4.82;;;8.70;1.00;;;;;;4896510;28;20230;-74
2021/03/15 09:47:47;;;;;;;6.38;4.97;;;9.40;1.00;;;;;;4911104;28;20983;-74
2021/03/15 09:50:20;;;;;;;8.40;5.10;;;9.90;1.00;;;;;;4892117;28;20276;-74
2021/03/15 09:52:46;;;;;;;6.47;4.90;;;10.50;1.00;;;;;;4908806;28;20345;-72
2021/03/15 09:55:13;;;;;;;6.00;4.90;;;10.80;1.00;;;;;;4891641;28;20233;-73
2021/03/15 09:57:39;;;;;;;5.53;4.85;;;10.50;1.00;;;;;;4908923;28;21509;-75
2021/03/15 10:00:07;;;;;;;7.65;5.10;;;10.00;1.00;;;;;;4902384;28;20330;-74
2021/03/15 10:02:34;;;;;;;5.15;4.65;;;9.50;1.00;;;;;;4919868;28;20809;-75
2021/03/15 10:05:01;;;;;;;5.63;4.20;;;9.40;1.00;;;;;;4905269;28;20218;-73
2021/03/15 10:07:27;;;;;;;5.50;5.00;;;9.40;1.00;;;;;;4916930;28;20222;-74
2021/03/15 10:09:53;;;;;;;6.38;4.90;;;9.20;1.00;;;;;;4901579;28;20855;-74
2021/03/15 10:12:21;;;;;;;5.78;4.28;;;9.80;1.00;;;;;;4920032;28;20229;-74
2021/03/15 10:14:59;;;;;;;5.97;5.38;;;10.70;1.00;;;;;;4905271;28;20735;-76
2021/03/15 10:17:28;;;;;;;10.40;6.28;;;10.70;1.00;;;;;;4933018;28;20899;-76
2021/03/15 10:19:55;;;;;;;4.20;3.80;;;10.70;1.00;;;;;;4905767;28;20224;-74
2021/03/15 10:22:22;;;;;;;6.18;4.80;;;10.70;1.00;;;;;;4920059;28;20231;-75
2021/03/15 10:24:50;;;;;;;7.03;3.80;;;10.40;1.00;;;;;;4926290;29;20921;-74
2021/03/15 10:27:18;;;;;;;6.75;4.55;;;10.30;1.00;;;;;;4903858;28;20313;-74
2021/03/15 10:29:56;;;;;;;4.50;3.22;;;10.00;1.00;;;;;;4925347;28;20252;-74
2021/03/15 10:32:25;;;;;;;14.88;5.60;;;10.00;1.00;;;;;;4895623;28;21074;-73
2021/03/15 10:34:57;;;;;;;6.63;3.80;;;10.80;1.00;;;;;;4920023;28;20238;-74
2021/03/15 10:37:25;;;;;;;3.03;2.23;;;12.30;1.00;;;;;;4902843;28;20419;-74
2021/03/15 10:39:53;;;;;;;4.30;2.80;;;13.20;1.00;;;;;;4908915;28;22014;-74
2021/03/15 10:42:20;;;;;;;5.17;3.10;;;13.10;1.00;;;;;;4892928;28;20498;-72
2021/03/15 10:44:47;;;;;;;4.87;3.47;;;12.50;1.00;;;;;;4915631;28;20465;-74
2021/03/15 10:47:13;;;;;;;4.50;3.40;;;11.90;1.00;;;;;;4896879;29;21738;-73
2021/03/15 10:49:41;;;;;;;5.23;3.53;;;11.40;1.00;;;;;;4915139;28;20426;-75
2021/03/15 10:52:25;;;;;;;6.60;3.55;;;10.80;1.00;;;;;;4899075;28;20535;-73
2021/03/15 10:54:51;;;;;;;4.80;3.88;;;10.30;1.00;;;;;;4909395;28;21153;-73
2021/03/15 10:57:18;;;;;;;5.25;2.97;;;10.00;1.00;;;;;;4900198;28;20235;-73
2021/03/15 10:59:46;;;;;;;3.03;2.55;;;10.00;1.00;;;;;;4905667;28;20230;-72
2021/03/15 11:02:20;;;;;;;4.82;2.58;;;10.00;1.00;;;;;;4902670;28;20247;-74
2021/03/15 11:04:53;;;;;;;4.57;2.70;;;10.20;1.00;;;;;;4909466;28;20226;-74
2021/03/15 11:07:26;;;;;;;2.83;2.20;;;11.60;1.00;;;;;;4890473;28;20285;-75
2021/03/15 11:09:58;;;;;;;6.55;3.22;;;11.50;1.00;;;;;;4919760;28;20264;-76
2021/03/15 11:12:39;;;;;;;5.10;2.20;;;10.80;1.00;;;;;;4871103;28;21135;-77
2021/03/15 11:15:08;;;;;;;5.28;2.10;;;10.80;1.00;;;;;;4895004;29;21306;-76
2021/03/15 11:17:34;;;;;;;7.07;2.53;;;11.10;1.00;;;;;;4890819;28;20241;-78
2021/03/15 11:20:01;;;;;;;4.43;1.90;;;11.40;1.00;;;;;;4918320;28;20493;-77
2021/03/15 11:22:28;;;;;;;3.57;2.70;;;12.00;1.00;;;;;;4894229;28;20947;-76
2021/03/15 11:25:08;;;;;;;1.60;1.50;;;11.80;1.00;;;;;;4911984;28;20473;-76
2021/03/15 11:27:34;;;;;;;2.05;1.60;;;11.20;1.00;;;;;;4902759;28;20371;-77
2021/03/15 11:30:01;;;;;;;3.25;2.17;;;10.90;1.00;;;;;;4918434;28;20225;-77
2021/03/15 11:32:27;;;;;;;5.03;2.30;;;10.70;1.00;;;;;;4924581;28;20255;-76
2021/03/15 11:34:53;;;;;;;3.78;2.20;;;10.60;1.00;;;;;;4894485;28;20236;-77
2021/03/15 11:37:24;;;;;;;7.10;4.05;;;10.40;1.00;;;;;;4913744;28;20318;-77
2021/03/15 11:39:54;;;;;;;2.73;2.10;;;10.50;1.00;;;;;;4906410;28;20234;-76
2021/03/15 11:42:25;;;;;;;3.63;2.20;;;10.80;1.00;;;;;;4911144;28;20465;-76
2021/03/15 11:44:51;;;;;;;4.07;2.50;;;12.70;1.00;;;;;;4880313;28;20937;-77
2021/03/15 11:47:17;;;;;;;4.07;2.47;;;13.60;1.00;;;;;;4915349;28;20470;-76
2021/03/15 11:49:43;;;;;;;1.83;1.73;;;14.00;1.00;;;;;;4905714;28;20426;-77
2021/03/15 11:52:10;;;;;;;4.23;2.10;;;15.50;1.00;;;;;;4896713;29;20515;-77
2021/03/15 11:54:36;;;;;;;2.40;2.00;;;15.60;1.00;;;;;;4888771;28;20847;-77
2021/03/15 11:57:04;;;;;;;2.23;2.03;;;16.60;1.00;;;;;;4907495;28;20934;-77
2021/03/15 11:59:32;;;;;;;4.57;2.23;;;16.00;1.00;;;;;;4890313;28;20794;-75
2021/03/15 12:01:58;;;;;;;3.10;1.83;;;14.80;1.00;;;;;;4918288;28;21127;-78
2021/03/15 12:04:28;;;;;;;2.07;1.87;;;13.50;1.00;;;;;;4889189;29;20467;-76
2021/03/15 12:06:55;;;;;;;7.10;4.10;;;12.40;1.00;;;;;;4916592;28;20447;-76
2021/03/15 12:09:21;;;;;;;3.10;1.77;;;12.00;1.00;;;;;;4907708;28;22493;-76
2021/03/15 12:11:47;;;;;;;2.17;1.97;;;12.40;1.00;;;;;;4917824;28;20466;-76
2021/03/15 12:14:17;;;;;;;1.83;1.67;;;14.40;1.00;;;;;;4902301;28;20492;-76
2021/03/15 12:16:46;;;;;;;4.10;2.10;;;17.30;1.00;;;;;;4913668;29;20461;-74
2021/03/15 12:19:14;;;;;;;2.10;1.90;;;18.70;1.00;;;;;;4897862;29;20552;-73
2021/03/15 12:21:40;;;;;;;3.23;1.70;;;17.90;1.00;;;;;;4883210;28;20508;-74
2021/03/15 12:24:07;;;;;;;3.33;1.90;;;19.10;1.00;;;;;;4909050;28;20472;-75
2021/03/15 12:26:35;;;;;;;2.27;1.97;;;21.00;1.00;;;;;;4901226;28;20499;-75
2021/03/15 12:29:01;;;;;;;4.57;2.40;;;21.20;1.00;;;;;;4908101;28;20554;-75
2021/03/15 12:31:28;;;;;;;1.93;1.53;;;19.10;1.00;;;;;;4892928;28;20509;-76
2021/03/15 12:33:54;;;;;;;5.53;4.30;;;16.80;1.00;;;;;;4908449;29;20471;-73
2021/03/15 12:36:21;;;;;;;3.60;2.53;;;15.70;1.00;;;;;;4897537;28;20465;-73
2021/03/15 12:38:47;;;;;;;2.50;1.83;;;14.80;1.00;;;;;;4910455;28;21792;-76
2021/03/15 12:41:13;;;;;;;3.17;2.87;;;14.10;1.00;;;;;;4900055;28;20470;-74
2021/03/15 12:43:39;;;;;;;2.80;2.03;;;13.60;1.00;;;;;;4915097;28;20481;-74
2021/03/15 12:46:06;;;;;;;2.50;2.30;;;13.40;1.00;;;;;;4888517;29;20454;-75
2021/03/15 12:48:35;;;;;;;4.13;2.90;;;13.50;1.00;;;;;;4912781;28;20811;-74
2021/03/15 12:51:02;;;;;;;4.73;2.50;;;13.20;1.00;;;;;;4903473;28;20509;-75
2021/03/15 12:53:28;;;;;;;3.30;2.90;;;12.50;1.00;;;;;;4909892;28;21057;-72
2021/03/15 12:55:55;;;;;;;4.63;4.13;;;11.80;1.00;;;;;;4903680;28;20459;-75
2021/03/15 12:58:21;;;;;;;4.90;4.35;;;11.30;1.00;;;;;;4910398;28;20795;-74
2021/03/15 13:00:47;;;;;;;4.43;4.03;;;10.50;1.00;;;;;;4915110;28;20243;-74
2021/03/15 13:03:13;;;;;;;5.05;3.80;;;10.00;1.00;;;;;;4903464;28;20710;-74
2021/03/15 13:05:40;;;;;;;4.78;4.28;;;9.50;1.00;;;;;;4907119;28;20345;-74
2021/03/15 13:08:07;;;;;;;4.40;3.95;;;9.10;1.00;;;;;;4903029;29;20226;-75
2021/03/15 13:10:33;;;;;;;4.75;4.20;;;8.80;1.00;;;;;;4912130;28;20516;-74
2021/03/15 13:12:59;;;;;;;5.63;5.13;;;8.70;1.00;;;;;;4899223;28;20233;-73
2021/03/15 13:15:26;;;;;;;4.07;3.67;;;8.80;1.00;;;;;;4906426;28;20947;-74